Warning: Javascript must be enabled to use all the features on this page!


Page Loading - Please Wait...

* We've detected you're using a mobile device. Find our Next Generation Station Page here.
Click to hideNews Bulletins

Peak Streamflow for the Nation

USGS 06844000 MUDDY CREEK AT ARAPAHOE, NEBR.

Furnas County, Nebraska
Hydrologic Unit Code 10250009
Latitude  40°18'21", Longitude  99°54'42" NAD83
Drainage area 246  square miles
Gage datum 2,143.92 feet above NGVD29
Output formats
Table
Graph
Tab-separated file
peakfq (watstore) format
Reselect output format
Water
Year
Date Gage
Height
(feet)
Stream-
flow
(cfs)
1947 1947-06-22 31.00  
1951 1951-05-21 20.38 4,840
1952 1952-08-11 14.05 2,180
1953 1953-05-28 10.44 748
1954 1954-05-16 19.00 3,360
1955 1955-06-17 11.09 669
1956 1956-06-18 8.02 239
1957 1957-06-16 24.62 7,280
1958 1958-07-19 11.97 676
1959 1959-05-26 8.34 255
1960 1960-03-22 19.80 2,600
1961 1961-05-21 12.00 645
1962 1962-06-08 22.00 2,950
1963 1963-06-02 16.50 1,380
1964 1964-07-07 13.81 762
1965 1965-05-26 21.90 2,890
1966 1966-02-09 20.53 2,370
1967 1967-06-15 23.60 3,650
1968 1968-08-10 14.95 1,150
1969 1969-09-19 24.44 4,420
1970 1970-06-12 13.40 904
1971 1971-08-13 8.01 251
1972 1972-05-23 7.04 173
1978 1978-03-13 9.54 369
1979 1979-07-28 17.50 1,850
1980 1980-02-21 10.49 697
1981 1981-08-06 12.34 871
1982 1982-08-15 7.88 302
1983 1983-08-23 14.89 1,330
1984 1984-07-04 8.18 335
1985 1985-06-26 11.06 640
1986 1986-05-08 28.90 10,800
1987 1987-06-10 9.75 255
1988 1988-08-13 18.50 1,720
1989 1989-06-25 25.60 5,610
1990 1990-05-19 14.53 928
1991 1991-06-02 10.38 445
1992 1992-07-23 6.75 126
1993 1993-07-24 20.10 2,440